createdAt,value
2023-04-02T00:01:11.048Z,0
2023-04-02T00:11:50.055Z,0
2023-04-02T00:22:27.911Z,0
2023-04-02T00:27:46.872Z,0
2023-04-02T00:38:25.353Z,0
2023-04-02T00:43:44.543Z,0
2023-04-02T00:54:23.096Z,0
2023-04-02T01:05:01.337Z,0
2023-04-02T01:10:20.242Z,0
2023-04-02T01:20:58.778Z,0
2023-04-02T01:26:18.283Z,0
2023-04-02T01:36:56.275Z,0
2023-04-02T01:47:34.905Z,0
2023-04-02T01:52:54.228Z,0
2023-04-02T02:03:33.196Z,0
2023-04-02T02:08:52.988Z,0
2023-04-02T02:19:31.187Z,0
2023-04-02T02:24:50.741Z,0
2023-04-02T02:35:29.192Z,0
2023-04-02T02:40:48.620Z,0
2023-04-02T02:46:07.848Z,0
2023-04-02T02:56:46.553Z,0
2023-04-02T03:02:05.632Z,0
2023-04-02T03:12:44.522Z,0
2023-04-02T03:23:23.245Z,0
2023-04-02T03:28:42.558Z,0
2023-04-02T03:39:20.865Z,0
2023-04-02T03:44:39.954Z,0
2023-04-02T03:55:17.730Z,0
2023-04-02T04:00:36.839Z,0
2023-04-02T04:11:15.788Z,0
2023-04-02T04:21:54.281Z,0
2023-04-02T04:27:13.102Z,0
2023-04-02T04:37:51.529Z,0
2023-04-02T04:43:11.262Z,0
2023-04-02T04:53:49.257Z,0.003
2023-04-02T05:04:28.436Z,0.0131
2023-04-02T05:09:47.492Z,0.0179
2023-04-02T05:20:26.211Z,0.0325
2023-04-02T05:25:45.076Z,0.0343
2023-04-02T05:36:24.516Z,0.0405
2023-04-02T05:47:02.503Z,0.0498
2023-04-02T05:52:21.987Z,0.0531
2023-04-02T06:03:01.482Z,0.062
2023-04-02T06:08:20.595Z,0.0647
2023-04-02T06:18:59.119Z,0.0768
2023-04-02T06:34:57.278Z,0.0833
2023-04-02T06:45:35.715Z,0.0917
2023-04-02T06:50:54.863Z,0.0909
2023-04-02T07:01:33.971Z,0.1088
2023-04-02T07:07:18.528Z,0.107
2023-04-02T07:17:56.460Z,0.1099
2023-04-02T07:23:16.491Z,0.131
2023-04-02T07:33:53.586Z,0.1839
2023-04-02T07:39:12.822Z,0.1837
2023-04-02T07:49:51.159Z,0.185
2023-04-02T08:00:29.183Z,0.1269
2023-04-02T08:05:48.884Z,0.136
2023-04-02T08:16:27.610Z,0.1141
2023-04-02T08:21:47.230Z,0.1302
2023-04-02T08:32:25.901Z,0.1131
2023-04-02T08:43:04.370Z,0.1382
2023-04-02T08:48:23.172Z,0.1877
2023-04-02T08:59:02.025Z,0.1758
2023-04-02T09:04:21.704Z,0.1631
2023-04-02T09:15:00.538Z,0.1755
2023-04-02T09:20:20.271Z,0.204
2023-04-02T09:25:39.778Z,0.2338
2023-04-02T09:36:18.219Z,0.2837
2023-04-02T09:41:37.358Z,0.3205
2023-04-02T09:52:15.493Z,0.3688
2023-04-02T09:57:34.753Z,0.3515
2023-04-02T10:08:13.214Z,0.3602
2023-04-02T10:24:11.509Z,0.1816
2023-04-02T10:34:49.198Z,0.2599
2023-04-02T10:40:08.011Z,0.248
2023-04-02T10:50:47.045Z,0.2849
2023-04-02T11:01:24.889Z,0.2425
2023-04-02T11:06:44.016Z,0.279
2023-04-02T11:17:21.726Z,0.2529
2023-04-02T11:22:41.403Z,0.2253
2023-04-02T11:33:20.914Z,0.2308
2023-04-02T11:38:39.246Z,0.2725
2023-04-02T11:49:17.437Z,0.2735
2023-04-02T11:59:55.953Z,0.2682
2023-04-02T12:05:15.214Z,0.2789
2023-04-02T12:15:53.721Z,0.2301
2023-04-02T12:21:12.769Z,0.2108
2023-04-02T12:31:50.816Z,0.3428
2023-04-02T12:42:29.325Z,0.3289
2023-04-02T12:47:48.476Z,0.2751
2023-04-02T12:58:26.795Z,0.2479
2023-04-02T13:03:45.774Z,0.2627
2023-04-02T13:14:24.940Z,0.3082
2023-04-02T13:30:22.598Z,0.276
2023-04-02T13:41:01.611Z,0.3051
2023-04-02T13:46:21.021Z,0.2151
2023-04-02T13:57:00.058Z,0.2394
2023-04-02T14:12:56.968Z,0.1555
2023-04-02T14:23:35.520Z,0.1886
2023-04-02T14:28:54.404Z,0.1677
2023-04-02T14:39:33.127Z,0.169
2023-04-02T14:44:51.682Z,0.1802
2023-04-02T14:55:30.563Z,0.1685
2023-04-02T15:06:09.517Z,0.1458
2023-04-02T15:11:29.238Z,0.1471
2023-04-02T15:22:09.423Z,0.1472
2023-04-02T15:27:26.411Z,0.1886
2023-04-02T15:38:04.053Z,0.1475
2023-04-02T15:48:42.590Z,0.1339
2023-04-02T15:54:02.277Z,0.1461
2023-04-02T16:04:41.613Z,0.0885
2023-04-02T16:09:59.764Z,0.0806
2023-04-02T16:15:19.271Z,0.0816
2023-04-02T16:25:57.817Z,0.0751
2023-04-02T16:31:17.145Z,0.0756
2023-04-02T16:41:55.170Z,0.0735
2023-04-02T16:47:14.210Z,0.0649
2023-04-02T16:57:53.068Z,0.0485
2023-04-02T17:08:31.552Z,0.0451
2023-04-02T17:13:50.419Z,0.0482
2023-04-02T17:24:28.578Z,0.0393
2023-04-02T17:29:47.906Z,0.0363
2023-04-02T17:40:26.706Z,0.0228
2023-04-02T17:56:25.522Z,0.0102
2023-04-02T18:07:03.532Z,0
2023-04-02T18:12:22.566Z,0
2023-04-02T18:23:01.770Z,0
2023-04-02T18:38:58.633Z,0
2023-04-02T18:49:37.606Z,0
2023-04-02T18:54:57.222Z,0
2023-04-02T19:05:35.709Z,0
2023-04-02T19:10:54.717Z,0
2023-04-02T19:21:32.718Z,0
2023-04-02T19:32:10.977Z,0
2023-04-02T19:37:30.226Z,0
2023-04-02T19:48:09.587Z,0
2023-04-02T19:53:28.914Z,0
2023-04-02T20:04:07.168Z,0
2023-04-02T20:20:04.485Z,0
2023-04-02T20:30:43.245Z,0
2023-04-02T20:36:02.866Z,0
2023-04-02T20:46:41.502Z,0
2023-04-02T20:57:20.437Z,0
2023-04-02T21:02:39.233Z,0
2023-04-02T21:13:18.298Z,0
2023-04-02T21:18:36.526Z,0
2023-04-02T21:29:15.635Z,0
2023-04-02T21:39:54.448Z,0
2023-04-02T21:45:14.025Z,0
2023-04-02T21:55:53.554Z,0
2023-04-02T22:01:20.363Z,0
2023-04-02T22:11:51.273Z,0
2023-04-02T22:17:10.584Z,0
2023-04-02T22:27:48.617Z,0
2023-04-02T22:38:26.861Z,0
2023-04-02T22:43:45.333Z,0
2023-04-02T22:54:23.962Z,0
2023-04-02T23:05:02.375Z,0
2023-04-02T23:15:40.522Z,0
2023-04-02T23:21:00.168Z,0
2023-04-02T23:31:38.430Z,0
2023-04-02T23:47:35.926Z,0
2023-04-02T23:58:14.958Z,0
